CheckWX is a tool to help pilots better visualize weather data.  It is not intended as a substitute for an official pre-flight weather briefing.

07:35:00 UTC

KHWD METAR
Hayward Executive Airport
Hayward, California, USA
Current

41 mins ago

KHWD 060654Z 12004KT 10SM OVC033 14/11 A3003 RMK AO2 SLP180 T01440111
Observed
Dec-6 @ 06:54 UTC
Wind
  • 120° at 4 KTS
Visibility
10 SM
Flight Rules
VFR
Cloud Levels
  • Overcast at 3,300' AGL
Temperature
14°C / 57°F
Dewpoint
11°C / 52°F
Humidity
82%
Altimeter
30.03" Hg
Pressure
1016.92 hPa
Previous

2 hours ago

KHWD 060554Z 08003KT 10SM FEW026 BKN033 14/11 A3003 RMK AO2 SLP179 T01440111 10156 20139 58001
Observed
Dec-6 @ 05:54 UTC
Wind
  • 080° at 3 KTS
Visibility
10 SM
Flight Rules
VFR
Cloud Levels
  • Few at 2,600' AGL
  • Broken at 3,300' AGL
Temperature
14°C / 57°F
Dewpoint
11°C / 52°F
Humidity
82%
Altimeter
30.03" Hg
Pressure
1016.92 hPa
Previous

3 hours ago

KHWD 060454Z 00000KT 10SM OVC028 14/12 A3004 RMK AO2 SLP181 T01390117
Observed
Dec-6 @ 04:54 UTC
Visibility
10 SM
Flight Rules
MVFR
Cloud Levels
  • Overcast at 2,800' AGL
Temperature
14°C / 57°F
Dewpoint
12°C / 54°F
Humidity
88%
Altimeter
30.04" Hg
Pressure
1017.32 hPa